Time;durP1;ratioP1;P1;durP2;ratioP2;P2;SDS_P1;SDS_P2;PMS_P1;PMS_P2;Temp;Humidity;BMP_temperature;BMP_pressure;BME280_temperature;BME280_humidity;BME280_pressure;Samples;Min_cycle;Max_cycle;Signal;HPM_P1;HPM_P2
2022/12/23 00:02:21;;;;;;;7.70;1.30;;;8.20;99.90;;;;;;5007957;28;20208;-68
2022/12/23 00:04:46;;;;;;;9.02;1.30;;;8.20;99.90;;;;;;5007595;28;20030;-67
2022/12/23 00:07:12;;;;;;;2.63;0.75;;;8.20;99.90;;;;;;5007133;28;20036;-69
2022/12/23 00:09:37;;;;;;;4.93;1.10;;;8.20;99.90;;;;;;4995445;28;20042;-68
2022/12/23 00:15:05;;;;;;;5.97;1.10;;;8.20;99.90;;;;;;5009400;28;20083;-67
2022/12/23 00:17:33;;;;;;;5.07;1.02;;;8.20;99.90;;;;;;5007343;28;20037;-68
2022/12/23 00:19:58;;;;;;;3.33;1.10;;;8.20;99.90;;;;;;5007945;28;20112;-68
2022/12/23 00:25:09;;;;;;;10.35;1.00;;;8.10;99.90;;;;;;5008352;28;20120;-68
2022/12/23 00:27:35;;;;;;;3.58;1.00;;;8.20;99.90;;;;;;4992713;28;20030;-67
2022/12/23 00:30:01;;;;;;;10.20;0.90;;;8.20;99.90;;;;;;4988685;28;20065;-67
2022/12/23 00:32:26;;;;;;;5.57;0.90;;;8.20;99.90;;;;;;5003177;28;20368;-67
2022/12/23 00:34:52;;;;;;;8.63;1.30;;;8.20;99.90;;;;;;5003721;28;20041;-69
2022/12/23 00:37:17;;;;;;;5.80;1.25;;;8.20;99.90;;;;;;5004649;28;21130;-67
2022/12/23 00:45:14;;;;;;;4.40;0.88;;;8.10;99.90;;;;;;5006955;28;20076;-68
2022/12/23 00:50:25;;;;;;;9.27;1.42;;;8.20;99.90;;;;;;5007898;28;20069;-67
2022/12/23 00:52:51;;;;;;;5.15;1.08;;;8.20;99.90;;;;;;5008933;28;20045;-68
2022/12/23 00:55:16;;;;;;;4.15;1.20;;;8.20;99.90;;;;;;5006764;28;20026;-69
2022/12/23 00:57:42;;;;;;;8.02;1.50;;;8.30;99.90;;;;;;5008592;28;20390;-68
2022/12/23 01:00:08;;;;;;;3.35;1.05;;;8.40;99.90;;;;;;5004555;28;20034;-68
2022/12/23 01:05:36;;;;;;;6.18;1.50;;;8.40;99.90;;;;;;4996102;28;20940;-68
2022/12/23 01:08:08;;;;;;;5.15;0.93;;;8.40;99.90;;;;;;5012056;28;20489;-66
2022/12/23 01:10:35;;;;;;;5.38;1.50;;;8.40;99.90;;;;;;5006623;28;20034;-69
2022/12/23 01:13:01;;;;;;;5.43;0.90;;;8.40;99.90;;;;;;5007953;28;20053;-69
2022/12/23 01:15:26;;;;;;;2.50;1.05;;;8.40;99.90;;;;;;5009315;28;20033;-68
2022/12/23 01:17:52;;;;;;;5.47;1.17;;;8.40;99.90;;;;;;5011982;28;20033;-68
2022/12/23 01:20:18;;;;;;;5.15;1.20;;;8.50;99.90;;;;;;5011317;28;20037;-69
2022/12/23 01:22:44;;;;;;;4.38;1.20;;;8.50;99.90;;;;;;5010297;28;20053;-68
2022/12/23 01:25:09;;;;;;;2.65;0.88;;;8.50;99.90;;;;;;5011453;28;20034;-68
2022/12/23 01:27:35;;;;;;;2.05;0.98;;;8.60;99.90;;;;;;5011128;28;20034;-69
2022/12/23 01:30:00;;;;;;;6.05;0.98;;;8.60;99.90;;;;;;5011396;28;20390;-68
2022/12/23 01:32:26;;;;;;;5.65;0.70;;;8.70;99.90;;;;;;5000528;28;20451;-68
2022/12/23 01:34:52;;;;;;;2.42;0.88;;;8.70;99.90;;;;;;5012217;28;20053;-68
2022/12/23 01:37:17;;;;;;;3.72;0.80;;;8.80;99.90;;;;;;5019190;28;20049;-68
2022/12/23 01:39:43;;;;;;;4.93;0.85;;;8.90;99.90;;;;;;5032096;28;20033;-67
2022/12/23 01:45:04;;;;;;;1.27;0.55;;;9.00;99.90;;;;;;5010619;28;20029;-70
2022/12/23 01:47:54;;;;;;;2.63;0.60;;;9.10;99.90;;;;;;5009620;28;20030;-67
2022/12/23 01:50:26;;;;;;;1.35;0.60;;;9.20;99.90;;;;;;5006480;28;20704;-68
2022/12/23 01:53:10;;;;;;;1.13;0.60;;;9.20;99.90;;;;;;5009079;28;20533;-68
2022/12/23 01:55:44;;;;;;;2.42;0.60;;;9.30;99.90;;;;;;5008791;28;20129;-67
2022/12/23 01:58:33;;;;;;;2.45;0.40;;;9.40;99.90;;;;;;5007930;28;20127;-68
2022/12/23 02:03:45;;;;;;;2.13;0.50;;;9.60;99.90;;;;;;5009678;28;20033;-68
2022/12/23 02:09:16;;;;;;;11.50;0.70;;;9.60;99.90;;;;;;4993296;28;20099;-67
2022/12/23 02:12:10;;;;;;;1.13;0.32;;;9.70;99.90;;;;;;5002003;28;20060;-67
2022/12/23 02:18:00;;;;;;;2.10;0.47;;;9.80;99.90;;;;;;5011208;28;20041;-68
2022/12/23 02:20:44;;;;;;;0.90;0.30;;;9.80;99.90;;;;;;5016820;28;20041;-68
2022/12/23 02:23:47;;;;;;;1.15;0.30;;;9.80;99.90;;;;;;5025922;28;20056;-67
2022/12/23 02:26:50;;;;;;;1.95;0.30;;;9.90;99.90;;;;;;4990181;28;20038;-67
2022/12/23 02:29:49;;;;;;;1.55;0.30;;;9.90;99.90;;;;;;5004682;28;20034;-68
2022/12/23 02:32:29;;;;;;;0.77;0.30;;;9.90;99.90;;;;;;5006051;28;20426;-67
2022/12/23 02:35:09;;;;;;;1.03;0.30;;;10.00;99.90;;;;;;4992345;28;20503;-67
2022/12/23 02:37:46;;;;;;;0.95;0.20;;;10.00;99.90;;;;;;4996955;28;20035;-66
2022/12/23 02:40:21;;;;;;;1.50;0.30;;;10.00;99.90;;;;;;5006323;28;20034;-66
2022/12/23 02:43:09;;;;;;;0.90;0.43;;;9.90;99.90;;;;;;4997584;28;20036;-66
2022/12/23 02:45:40;;;;;;;0.68;0.30;;;9.90;99.90;;;;;;4994489;28;21658;-66
2022/12/23 02:48:22;;;;;;;1.83;0.40;;;9.90;99.90;;;;;;5002913;28;20483;-67
2022/12/23 02:50:51;;;;;;;1.83;0.60;;;9.90;99.90;;;;;;5018368;28;20053;-68
2022/12/23 02:53:29;;;;;;;2.58;0.50;;;9.90;99.90;;;;;;5007515;28;20026;-67
2022/12/23 02:55:58;;;;;;;0.68;0.40;;;9.90;99.90;;;;;;4999866;28;20033;-66
2022/12/23 02:58:28;;;;;;;1.10;0.50;;;9.90;99.90;;;;;;5008166;28;20661;-68
2022/12/23 03:00:56;;;;;;;1.35;0.40;;;10.00;99.90;;;;;;5005867;28;20042;-69
2022/12/23 03:03:23;;;;;;;2.10;0.30;;;9.90;99.90;;;;;;5003863;28;20040;-67
2022/12/23 03:05:51;;;;;;;1.80;0.40;;;10.00;99.90;;;;;;5008068;28;20034;-68
2022/12/23 03:08:24;;;;;;;1.95;0.98;;;10.00;99.90;;;;;;4995558;28;20022;-68
2022/12/23 03:11:11;;;;;;;1.77;0.50;;;10.00;99.90;;;;;;4990780;28;20073;-68
2022/12/23 03:13:57;;;;;;;1.25;0.40;;;10.10;99.90;;;;;;4990639;28;20031;-67
2022/12/23 03:16:31;;;;;;;1.02;0.40;;;10.00;99.90;;;;;;4993613;28;20034;-65
2022/12/23 03:19:35;;;;;;;0.60;0.30;;;10.00;99.90;;;;;;4994382;28;20063;-65
2022/12/23 03:22:12;;;;;;;2.13;0.30;;;10.10;99.90;;;;;;4994481;28;20080;-66
2022/12/23 03:25:27;;;;;;;0.75;0.40;;;10.10;99.90;;;;;;4990105;28;20094;-66
2022/12/23 03:28:21;;;;;;;0.43;0.20;;;10.10;99.90;;;;;;5000663;28;20113;-65
2022/12/23 03:30:51;;;;;;;0.93;0.30;;;10.10;99.90;;;;;;4991337;28;20050;-65
2022/12/23 03:33:27;;;;;;;0.43;0.30;;;10.00;99.90;;;;;;5008046;28;20034;-67
2022/12/23 03:36:01;;;;;;;0.75;0.38;;;10.10;99.90;;;;;;5006046;28;20061;-67
2022/12/23 03:38:31;;;;;;;1.25;0.50;;;10.10;99.90;;;;;;4988619;28;20018;-67
2022/12/23 03:41:04;;;;;;;1.55;0.57;;;10.20;99.90;;;;;;4990675;28;20038;-66
2022/12/23 03:43:35;;;;;;;1.05;0.63;;;10.20;99.90;;;;;;4989415;28;20065;-66
2022/12/23 03:46:09;;;;;;;1.08;0.50;;;10.30;99.90;;;;;;5024754;28;20030;-65
2022/12/23 03:48:47;;;;;;;0.90;0.40;;;10.30;99.90;;;;;;5008840;28;20080;-66
2022/12/23 03:51:17;;;;;;;2.72;0.50;;;10.30;99.90;;;;;;5009634;28;20065;-67
2022/12/23 03:53:50;;;;;;;0.88;0.50;;;10.30;99.90;;;;;;4989539;28;20034;-67
2022/12/23 03:56:27;;;;;;;3.75;0.57;;;10.30;99.90;;;;;;4995198;28;20038;-67
2022/12/23 03:59:13;;;;;;;0.73;0.40;;;10.40;99.90;;;;;;5004729;28;20034;-65
2022/12/23 04:01:55;;;;;;;1.05;0.50;;;10.40;99.90;;;;;;5004274;28;20165;-67
2022/12/23 04:04:42;;;;;;;2.33;0.50;;;10.40;99.90;;;;;;5008274;28;20079;-67
2022/12/23 04:07:20;;;;;;;2.50;0.60;;;10.40;99.90;;;;;;5005016;28;20037;-69
2022/12/23 04:09:46;;;;;;;0.90;0.60;;;10.40;99.90;;;;;;5009395;28;20041;-65
2022/12/23 04:12:13;;;;;;;1.00;0.60;;;10.40;99.90;;;;;;5011421;28;20072;-65
2022/12/23 04:14:47;;;;;;;1.25;0.70;;;10.40;99.90;;;;;;5028819;28;20751;-67
2022/12/23 04:17:14;;;;;;;1.08;0.60;;;10.40;99.90;;;;;;5013267;28;20022;-66
2022/12/23 04:19:41;;;;;;;0.90;0.52;;;10.40;99.90;;;;;;5011663;28;20068;-65
2022/12/23 04:22:07;;;;;;;1.35;0.82;;;10.50;99.90;;;;;;5028495;28;20022;-69
2022/12/23 04:24:32;;;;;;;0.85;0.68;;;10.50;99.90;;;;;;5027956;28;20053;-66
2022/12/23 04:26:58;;;;;;;1.80;0.77;;;10.50;99.90;;;;;;5028444;28;20732;-66
2022/12/23 04:29:24;;;;;;;1.00;0.70;;;10.50;99.90;;;;;;5025940;28;20022;-66
2022/12/23 04:31:49;;;;;;;1.17;0.80;;;10.50;99.90;;;;;;5002967;28;20566;-65
2022/12/23 04:34:15;;;;;;;0.98;0.65;;;10.60;99.90;;;;;;4991287;28;20105;-66
2022/12/23 04:36:40;;;;;;;1.20;0.50;;;10.50;99.90;;;;;;5004747;28;20068;-68
2022/12/23 04:39:06;;;;;;;1.35;0.63;;;10.50;99.90;;;;;;5005528;28;20026;-68
2022/12/23 04:41:32;;;;;;;1.02;0.60;;;10.50;99.90;;;;;;5008157;28;20042;-66
2022/12/23 04:43:57;;;;;;;1.40;0.80;;;10.50;99.90;;;;;;5007323;28;20223;-67
2022/12/23 04:46:23;;;;;;;1.00;0.57;;;10.50;99.90;;;;;;5000247;28;20466;-67
2022/12/23 04:48:48;;;;;;;1.17;0.70;;;10.50;99.90;;;;;;5000579;28;20061;-67
2022/12/23 04:51:14;;;;;;;1.10;0.60;;;10.50;99.90;;;;;;5000211;28;20042;-67
2022/12/23 04:53:40;;;;;;;0.63;0.30;;;10.50;99.90;;;;;;4998168;28;20597;-66
2022/12/23 04:56:05;;;;;;;1.35;0.55;;;10.50;99.90;;;;;;4997079;28;20041;-66
2022/12/23 04:58:31;;;;;;;1.02;0.50;;;10.50;99.90;;;;;;5009359;28;20105;-66
2022/12/23 05:01:08;;;;;;;0.65;0.47;;;10.50;99.90;;;;;;4994949;28;20034;-68
2022/12/23 05:03:34;;;;;;;0.88;0.40;;;10.50;99.90;;;;;;4992143;28;20030;-67
2022/12/23 05:06:00;;;;;;;1.00;0.63;;;10.50;99.90;;;;;;5009277;28;20034;-66
2022/12/23 05:08:26;;;;;;;1.98;0.70;;;10.50;99.90;;;;;;5011563;28;20029;-66
2022/12/23 05:10:52;;;;;;;2.10;0.90;;;10.50;99.90;;;;;;5012361;28;20391;-65
2022/12/23 05:13:17;;;;;;;1.17;0.80;;;10.50;99.90;;;;;;5011529;28;20030;-67
2022/12/23 05:15:49;;;;;;;2.33;0.77;;;10.50;99.90;;;;;;5012196;28;20673;-66
2022/12/23 05:18:15;;;;;;;1.63;0.88;;;10.50;99.90;;;;;;5011981;28;20038;-67
2022/12/23 05:20:41;;;;;;;1.30;0.80;;;10.40;99.90;;;;;;5011157;28;20037;-67
2022/12/23 05:23:07;;;;;;;1.83;1.10;;;10.40;99.90;;;;;;5011662;28;20780;-66
2022/12/23 05:25:34;;;;;;;1.33;0.80;;;10.40;99.90;;;;;;5011908;28;20025;-66
2022/12/23 05:28:00;;;;;;;1.98;1.30;;;10.40;99.90;;;;;;5012051;28;20041;-66
2022/12/23 05:30:25;;;;;;;1.77;1.30;;;10.40;99.90;;;;;;5011652;28;20029;-67
2022/12/23 05:32:55;;;;;;;1.67;0.93;;;10.40;99.90;;;;;;5010465;28;20099;-66
2022/12/23 05:35:25;;;;;;;2.63;1.30;;;10.40;99.90;;;;;;5010205;28;20037;-66
2022/12/23 05:37:51;;;;;;;2.35;1.00;;;10.40;99.90;;;;;;5012444;28;20030;-66
2022/12/23 05:40:17;;;;;;;2.45;1.35;;;10.40;99.90;;;;;;5010649;28;20052;-66
2022/12/23 05:42:42;;;;;;;2.08;1.20;;;10.30;99.90;;;;;;5012006;28;20387;-66
2022/12/23 05:45:08;;;;;;;2.22;1.30;;;10.30;99.90;;;;;;5011856;28;20117;-65
2022/12/23 05:47:34;;;;;;;4.50;1.83;;;10.30;99.90;;;;;;5009887;28;20603;-64
2022/12/23 05:50:00;;;;;;;5.35;1.90;;;10.30;99.90;;;;;;5010597;28;20038;-65
2022/12/23 05:52:26;;;;;;;2.85;1.48;;;10.30;99.90;;;;;;5010610;28;20053;-67
2022/12/23 05:54:52;;;;;;;3.63;1.55;;;10.30;99.90;;;;;;5011798;28;20034;-66
2022/12/23 05:57:17;;;;;;;3.63;1.75;;;10.30;99.90;;;;;;5011025;28;20471;-67
2022/12/23 05:59:44;;;;;;;2.70;1.50;;;10.30;99.90;;;;;;5011642;28;20029;-65
2022/12/23 06:02:09;;;;;;;5.63;1.80;;;10.40;99.90;;;;;;5010640;28;20036;-67
2022/12/23 06:04:35;;;;;;;2.33;1.45;;;10.40;99.90;;;;;;5015678;28;20097;-66
2022/12/23 06:07:00;;;;;;;2.60;1.52;;;10.40;99.90;;;;;;5019570;28;20113;-65
2022/12/23 06:09:26;;;;;;;3.70;1.50;;;10.40;99.90;;;;;;5010761;28;20464;-65
2022/12/23 06:11:52;;;;;;;1.85;1.08;;;10.40;99.90;;;;;;5011806;28;20083;-64
2022/12/23 06:14:17;;;;;;;2.00;1.23;;;10.40;99.90;;;;;;5010686;28;20379;-69
2022/12/23 06:16:43;;;;;;;3.47;1.45;;;10.30;99.90;;;;;;5011165;28;20118;-65
2022/12/23 06:19:08;;;;;;;2.25;1.50;;;10.30;99.90;;;;;;5010087;28;20041;-66
2022/12/23 06:21:34;;;;;;;2.30;1.60;;;10.30;99.90;;;;;;5009894;28;20022;-67
2022/12/23 06:24:00;;;;;;;3.95;1.27;;;10.30;99.90;;;;;;5010797;28;20601;-67
2022/12/23 06:26:25;;;;;;;3.35;1.40;;;10.30;99.90;;;;;;5010432;28;20076;-67
2022/12/23 06:28:51;;;;;;;3.13;1.70;;;10.20;99.90;;;;;;5010982;28;20072;-64
2022/12/23 06:31:17;;;;;;;4.40;1.90;;;10.30;99.90;;;;;;5011030;28;20045;-69
2022/12/23 06:33:42;;;;;;;4.38;2.20;;;10.20;99.90;;;;;;5009582;28;20030;-67
2022/12/23 06:36:08;;;;;;;3.38;2.05;;;10.20;99.90;;;;;;5019782;28;20029;-68
2022/12/23 06:38:34;;;;;;;3.03;1.60;;;10.30;99.90;;;;;;5022267;28;20872;-66
2022/12/23 06:41:00;;;;;;;3.42;1.85;;;10.30;99.90;;;;;;5010590;28;20034;-64
2022/12/23 06:43:25;;;;;;;3.65;2.08;;;10.20;99.90;;;;;;5010011;28;20057;-67
2022/12/23 06:45:51;;;;;;;2.70;1.92;;;10.30;99.90;;;;;;5010856;28;20022;-66
2022/12/23 06:48:17;;;;;;;2.85;1.70;;;10.30;99.90;;;;;;5009965;28;20045;-69
2022/12/23 06:50:43;;;;;;;6.03;2.00;;;10.20;99.90;;;;;;5008896;28;20034;-65
2022/12/23 06:53:09;;;;;;;3.10;1.83;;;10.30;99.90;;;;;;5010748;28;20041;-65
2022/12/23 06:55:35;;;;;;;3.88;2.40;;;10.20;99.90;;;;;;5009635;28;20085;-65
2022/12/23 06:58:01;;;;;;;3.30;2.00;;;10.20;99.90;;;;;;5010693;28;20391;-66
2022/12/23 07:00:26;;;;;;;3.80;2.20;;;10.20;99.90;;;;;;5008459;28;20192;-66
2022/12/23 07:02:53;;;;;;;3.50;2.00;;;10.20;99.90;;;;;;5010083;28;20042;-64
2022/12/23 07:05:19;;;;;;;4.18;2.30;;;10.20;99.90;;;;;;5011010;28;20040;-70
2022/12/23 07:07:44;;;;;;;5.93;2.50;;;10.20;99.90;;;;;;5007763;28;20038;-67
2022/12/23 07:10:10;;;;;;;4.75;2.70;;;10.20;99.90;;;;;;5008785;28;20506;-64
2022/12/23 07:12:36;;;;;;;4.63;2.72;;;10.20;99.90;;;;;;5039247;28;20053;-66
2022/12/23 07:15:02;;;;;;;4.05;2.67;;;10.20;99.90;;;;;;5010405;28;20534;-66
2022/12/23 07:17:28;;;;;;;3.95;2.45;;;10.20;99.90;;;;;;5009433;28;20065;-67
2022/12/23 07:19:53;;;;;;;4.50;2.20;;;10.20;99.90;;;;;;5010152;28;20029;-67
2022/12/23 07:22:19;;;;;;;4.53;2.30;;;10.10;99.90;;;;;;5009039;28;20037;-69
2022/12/23 07:24:45;;;;;;;7.85;2.80;;;10.20;99.90;;;;;;5020770;28;20467;-64
2022/12/23 07:27:10;;;;;;;4.10;2.55;;;10.20;99.90;;;;;;5028337;28;20490;-66
2022/12/23 07:29:36;;;;;;;4.35;2.63;;;10.20;99.90;;;;;;5028810;28;20025;-66
2022/12/23 07:32:02;;;;;;;5.10;2.78;;;10.20;99.90;;;;;;5017389;28;20029;-66
2022/12/23 07:34:28;;;;;;;3.60;2.53;;;10.20;99.90;;;;;;5008952;28;20451;-66
2022/12/23 07:36:54;;;;;;;5.63;2.60;;;10.20;99.90;;;;;;5009862;28;20049;-67
2022/12/23 07:39:20;;;;;;;5.63;2.85;;;10.10;99.90;;;;;;5016525;28;20030;-69
2022/12/23 07:41:45;;;;;;;6.38;2.90;;;10.20;99.90;;;;;;5028853;28;20056;-65
2022/12/23 07:44:11;;;;;;;5.70;2.80;;;10.10;99.90;;;;;;5010111;28;20356;-66
2022/12/23 07:46:37;;;;;;;4.75;2.78;;;10.20;99.90;;;;;;5008670;28;20088;-66
2022/12/23 07:49:03;;;;;;;4.47;2.95;;;10.20;99.90;;;;;;5009723;28;20030;-66
2022/12/23 07:51:28;;;;;;;8.38;3.30;;;10.20;99.90;;;;;;5008442;28;20041;-67
2022/12/23 07:53:54;;;;;;;5.20;2.80;;;10.10;99.90;;;;;;5009511;28;20109;-67
2022/12/23 07:56:20;;;;;;;4.30;2.67;;;10.10;99.90;;;;;;5009317;28;20034;-69
2022/12/23 07:58:50;;;;;;;6.10;2.22;;;10.10;99.90;;;;;;5007775;28;20018;-66
2022/12/23 08:01:16;;;;;;;3.78;2.17;;;10.10;99.90;;;;;;5009618;28;20120;-66
2022/12/23 08:03:42;;;;;;;3.42;2.00;;;10.10;99.90;;;;;;5008714;28;20020;-66
2022/12/23 08:06:14;;;;;;;4.05;2.00;;;10.10;99.90;;;;;;5009065;28;20034;-66
2022/12/23 08:08:40;;;;;;;6.82;2.60;;;10.10;99.90;;;;;;5008613;28;20141;-67
2022/12/23 08:11:08;;;;;;;4.47;2.60;;;10.10;99.90;;;;;;5009345;28;20022;-66
2022/12/23 08:13:36;;;;;;;6.13;3.15;;;10.10;99.90;;;;;;5007364;28;20042;-65
2022/12/23 08:16:03;;;;;;;5.95;3.50;;;10.10;99.90;;;;;;5009356;28;20030;-65
2022/12/23 08:18:30;;;;;;;5.47;3.28;;;10.20;99.90;;;;;;5018068;28;20481;-67
2022/12/23 08:21:12;;;;;;;6.30;2.80;;;10.20;99.90;;;;;;5028682;28;20049;-66
2022/12/23 08:23:38;;;;;;;5.32;3.28;;;10.10;99.90;;;;;;5027882;28;20115;-66
2022/12/23 08:26:08;;;;;;;6.57;3.78;;;10.10;99.90;;;;;;5028591;28;20037;-66
2022/12/23 08:28:34;;;;;;;5.65;3.47;;;10.10;99.90;;;;;;5027935;28;20017;-66
2022/12/23 08:31:15;;;;;;;6.20;3.78;;;10.10;99.90;;;;;;5023063;28;20050;-66
2022/12/23 08:33:42;;;;;;;9.60;4.22;;;10.10;99.90;;;;;;5005849;28;20052;-66
2022/12/23 08:36:12;;;;;;;7.80;4.35;;;10.10;99.90;;;;;;5007615;28;20147;-66
2022/12/23 08:38:37;;;;;;;7.07;4.50;;;10.10;99.90;;;;;;5008009;28;20034;-67
2022/12/23 08:41:09;;;;;;;7.05;4.18;;;10.10;99.90;;;;;;5007037;28;20038;-66
2022/12/23 08:43:34;;;;;;;16.88;5.13;;;10.10;99.90;;;;;;5024742;28;20029;-65
2022/12/23 08:46:00;;;;;;;9.25;5.13;;;10.20;99.90;;;;;;5028486;28;20029;-65
2022/12/23 08:48:25;;;;;;;9.70;5.18;;;10.20;99.90;;;;;;5027953;28;20033;-69
2022/12/23 08:50:51;;;;;;;9.45;5.40;;;10.20;99.90;;;;;;5024466;28;20049;-67
2022/12/23 08:53:17;;;;;;;12.05;5.85;;;10.20;99.90;;;;;;5007868;28;20661;-65
2022/12/23 08:55:44;;;;;;;11.63;5.85;;;10.20;99.90;;;;;;5007961;28;20034;-67
2022/12/23 08:58:11;;;;;;;9.57;5.93;;;10.20;99.90;;;;;;5022532;28;20040;-67
2022/12/23 09:00:37;;;;;;;10.40;5.82;;;10.20;99.90;;;;;;5007526;28;20073;-66
2022/12/23 09:03:03;;;;;;;10.40;5.90;;;10.20;99.90;;;;;;5008837;28;20476;-66
2022/12/23 09:05:29;;;;;;;10.77;6.15;;;10.20;99.90;;;;;;5008097;28;20037;-66
2022/12/23 09:07:55;;;;;;;11.38;6.13;;;10.20;99.90;;;;;;5008813;28;20452;-66
2022/12/23 09:10:22;;;;;;;11.93;6.30;;;10.20;99.90;;;;;;5008667;28;20474;-67
2022/12/23 09:12:47;;;;;;;13.02;5.97;;;10.20;99.90;;;;;;5006149;28;20554;-67
2022/12/23 09:15:13;;;;;;;13.02;6.63;;;10.30;99.90;;;;;;5008559;28;20026;-66
2022/12/23 09:17:39;;;;;;;11.00;6.28;;;10.30;99.90;;;;;;5007871;28;20125;-66
2022/12/23 09:20:05;;;;;;;10.43;5.80;;;10.30;99.90;;;;;;5007039;28;20042;-65
2022/12/23 09:22:34;;;;;;;9.25;5.10;;;10.40;99.90;;;;;;5007313;28;20058;-66
2022/12/23 09:25:00;;;;;;;7.10;4.00;;;10.40;99.90;;;;;;5008602;28;20045;-66
2022/12/23 09:27:25;;;;;;;8.00;4.25;;;10.50;99.90;;;;;;5007933;28;20042;-69
2022/12/23 09:29:51;;;;;;;5.45;3.40;;;10.50;99.90;;;;;;5007858;28;20034;-66
2022/12/23 09:32:18;;;;;;;7.10;4.07;;;10.50;99.90;;;;;;5008524;28;20143;-65
2022/12/23 09:34:43;;;;;;;8.32;4.03;;;10.60;99.90;;;;;;5006547;28;20507;-66
2022/12/23 09:37:11;;;;;;;3.78;2.20;;;10.70;99.90;;;;;;5009052;28;20148;-67
2022/12/23 09:39:37;;;;;;;4.28;2.65;;;10.70;99.90;;;;;;5011182;28;20065;-65
2022/12/23 09:42:03;;;;;;;5.88;2.30;;;10.80;99.90;;;;;;5012052;28;20510;-66
2022/12/23 09:45:05;;;;;;;5.18;2.00;;;10.80;99.90;;;;;;5010175;28;20442;-69
2022/12/23 09:47:32;;;;;;;12.20;1.75;;;10.80;99.90;;;;;;5010657;28;20507;-66
2022/12/23 09:50:22;;;;;;;2.88;1.58;;;10.80;99.90;;;;;;5013277;28;20026;-66
2022/12/23 09:53:26;;;;;;;6.72;2.22;;;10.80;99.90;;;;;;5030741;28;20138;-66
2022/12/23 09:56:05;;;;;;;2.75;1.60;;;10.80;99.90;;;;;;4988300;28;20097;-66
2022/12/23 09:58:44;;;;;;;5.40;1.95;;;10.70;99.90;;;;;;4968317;28;20039;-69
2022/12/23 10:01:39;;;;;;;3.80;1.95;;;10.80;99.90;;;;;;4968775;28;20054;-66
2022/12/23 10:04:30;;;;;;;4.97;2.05;;;10.80;99.90;;;;;;4969916;28;20027;-66
2022/12/23 10:07:13;;;;;;;6.40;2.47;;;10.90;99.90;;;;;;4969739;28;20074;-66
2022/12/23 10:09:42;;;;;;;6.68;2.30;;;10.90;99.90;;;;;;4969011;28;20114;-66
2022/12/23 10:12:18;;;;;;;3.90;2.15;;;10.80;99.90;;;;;;4969205;28;20042;-66
2022/12/23 10:14:48;;;;;;;3.92;2.38;;;10.80;99.90;;;;;;4968818;28;20144;-65
2022/12/23 10:17:20;;;;;;;3.22;2.08;;;10.80;99.90;;;;;;4968544;28;20038;-66
2022/12/23 10:19:47;;;;;;;3.88;2.15;;;10.90;99.90;;;;;;4968752;28;20043;-66
2022/12/23 10:22:25;;;;;;;5.50;1.98;;;11.00;99.90;;;;;;4969125;28;20057;-66
2022/12/23 10:24:52;;;;;;;2.33;1.55;;;10.90;99.90;;;;;;4968960;28;20643;-65
2022/12/23 10:27:32;;;;;;;3.83;2.20;;;10.90;99.90;;;;;;4986746;28;20046;-66
2022/12/23 10:30:01;;;;;;;3.72;2.10;;;10.90;99.90;;;;;;4991531;28;20038;-65
2022/12/23 10:32:54;;;;;;;3.47;1.90;;;10.90;99.90;;;;;;5020430;28;20038;-66
2022/12/23 10:35:35;;;;;;;2.90;2.00;;;10.90;99.90;;;;;;5010828;28;20360;-66
2022/12/23 10:38:00;;;;;;;;;;;10.90;99.90;;;;;;5011233;28;20483;-66
2022/12/23 10:40:37;;;;;;;4.70;2.80;;;10.90;99.90;;;;;;5010699;28;19917;-66
2022/12/23 10:43:40;;;;;;;4.82;3.17;;;10.90;99.90;;;;;;5010730;28;20030;-65
2022/12/23 10:46:20;;;;;;;4.97;3.03;;;10.90;99.90;;;;;;5009423;28;20041;-65
2022/12/23 10:49:15;;;;;;;6.22;3.53;;;10.90;99.90;;;;;;5016778;28;20029;-66
2022/12/23 10:51:49;;;;;;;6.32;3.72;;;10.90;99.90;;;;;;4987620;28;20113;-65
2022/12/23 10:54:24;;;;;;;7.18;3.53;;;10.90;99.90;;;;;;5005346;28;20053;-65
2022/12/23 10:56:50;;;;;;;5.40;3.58;;;11.00;99.90;;;;;;5010122;28;20104;-65
2022/12/23 10:59:24;;;;;;;5.80;3.50;;;10.90;99.90;;;;;;5010539;28;20125;-64
2022/12/23 11:01:56;;;;;;;6.03;3.40;;;11.00;99.90;;;;;;5009877;28;20088;-67
2022/12/23 11:04:32;;;;;;;4.72;3.10;;;11.00;99.90;;;;;;5012844;28;20104;-66
2022/12/23 11:06:58;;;;;;;4.90;2.85;;;11.10;99.90;;;;;;5028601;28;20083;-65
2022/12/23 11:09:34;;;;;;;5.55;2.55;;;11.10;99.90;;;;;;5029604;28;20044;-65
2022/12/23 11:12:05;;;;;;;3.40;2.35;;;11.10;99.90;;;;;;4990840;28;20085;-65
2022/12/23 11:14:36;;;;;;;4.75;2.40;;;11.10;99.90;;;;;;4990612;28;20101;-72
2022/12/23 11:17:04;;;;;;;4.70;2.15;;;11.10;99.90;;;;;;4990711;28;20392;-65
2022/12/23 11:19:30;;;;;;;3.97;2.70;;;11.10;99.90;;;;;;4996607;28;20038;-67
2022/12/23 11:21:57;;;;;;;5.93;2.90;;;11.10;99.90;;;;;;5009162;28;20132;-66
2022/12/23 11:24:26;;;;;;;5.38;3.03;;;11.10;99.90;;;;;;5010255;28;20072;-65
2022/12/23 11:27:03;;;;;;;5.53;3.03;;;11.10;99.90;;;;;;5009337;28;20088;-64
2022/12/23 11:29:38;;;;;;;4.28;2.58;;;11.10;99.90;;;;;;5010313;28;20084;-67
2022/12/23 11:32:26;;;;;;;3.80;2.25;;;11.10;99.90;;;;;;5006354;28;20025;-65
2022/12/23 11:34:52;;;;;;;4.85;2.20;;;11.10;99.90;;;;;;5018906;28;20107;-65
2022/12/23 11:37:36;;;;;;;5.07;2.40;;;11.10;99.90;;;;;;5029630;28;20091;-64
2022/12/23 11:40:13;;;;;;;3.53;2.15;;;11.10;99.90;;;;;;5029868;28;20029;-65
2022/12/23 11:42:40;;;;;;;5.30;2.45;;;11.10;99.90;;;;;;5027862;28;20045;-66
2022/12/23 11:45:07;;;;;;;3.60;2.35;;;11.20;99.90;;;;;;5028068;28;20032;-65
2022/12/23 11:47:38;;;;;;;5.47;2.72;;;11.20;99.90;;;;;;5020505;28;20489;-69
2022/12/23 11:50:35;;;;;;;4.25;2.60;;;11.20;99.90;;;;;;5008589;28;20108;-66
2022/12/23 11:53:08;;;;;;;5.75;2.53;;;11.20;99.90;;;;;;5008976;28;20482;-66
2022/12/23 11:55:35;;;;;;;4.28;2.63;;;11.20;99.90;;;;;;5041151;28;20038;-69
2022/12/23 11:58:02;;;;;;;7.20;2.75;;;11.20;99.90;;;;;;5009441;28;20113;-65
2022/12/23 12:00:39;;;;;;;4.05;2.45;;;11.20;99.90;;;;;;5008787;28;20034;-66
2022/12/23 12:03:07;;;;;;;4.63;2.47;;;11.10;99.90;;;;;;5009535;28;20034;-66
2022/12/23 12:05:46;;;;;;;8.52;2.90;;;11.20;99.90;;;;;;5007961;28;20502;-67
2022/12/23 12:08:20;;;;;;;7.03;3.17;;;11.10;99.90;;;;;;5009178;28;20040;-65
2022/12/23 12:10:45;;;;;;;7.70;3.55;;;11.10;99.90;;;;;;5023838;28;20144;-64
2022/12/23 12:13:38;;;;;;;5.28;3.38;;;11.10;99.90;;;;;;5003335;28;20498;-65
2022/12/23 12:16:26;;;;;;;8.82;3.33;;;11.10;99.90;;;;;;5029053;28;20132;-67
2022/12/23 12:18:56;;;;;;;5.10;3.05;;;11.20;99.90;;;;;;5024567;28;20489;-66
2022/12/23 12:21:29;;;;;;;5.63;3.00;;;11.20;99.90;;;;;;5009240;28;20026;-64
2022/12/23 12:24:03;;;;;;;6.00;3.03;;;11.10;99.90;;;;;;5004592;28;20081;-65
2022/12/23 12:26:35;;;;;;;5.57;2.85;;;11.20;99.90;;;;;;5007896;28;20107;-65
2022/12/23 12:29:12;;;;;;;5.97;3.03;;;11.20;99.90;;;;;;5004401;28;20069;-66
2022/12/23 12:31:53;;;;;;;4.88;3.33;;;11.10;99.90;;;;;;5002832;28;20048;-68
2022/12/23 12:34:42;;;;;;;5.68;3.65;;;11.10;99.90;;;;;;5001100;28;20122;-64
2022/12/23 12:37:48;;;;;;;6.30;3.65;;;11.20;99.90;;;;;;5013957;28;20482;-64
2022/12/23 12:40:40;;;;;;;7.88;3.10;;;11.20;99.90;;;;;;5027428;28;20055;-66
2022/12/23 12:43:17;;;;;;;6.40;3.65;;;11.10;99.90;;;;;;5008091;28;20045;-64
2022/12/23 12:46:20;;;;;;;4.35;2.75;;;11.10;99.90;;;;;;5007228;28;20065;-65
2022/12/23 12:49:14;;;;;;;4.93;2.90;;;11.10;99.90;;;;;;4995044;28;20088;-64
2022/12/23 12:52:06;;;;;;;5.97;2.67;;;11.10;99.90;;;;;;5014293;28;20026;-66
2022/12/23 12:54:40;;;;;;;5.22;2.78;;;11.10;99.90;;;;;;5008703;28;20058;-64
2022/12/23 12:57:14;;;;;;;5.55;2.75;;;11.10;99.90;;;;;;4993144;28;20070;-66
2022/12/23 12:59:40;;;;;;;4.63;2.70;;;11.10;99.90;;;;;;4988802;28;20054;-67
2022/12/23 13:02:30;;;;;;;5.03;2.78;;;11.20;99.90;;;;;;5003954;28;20050;-64
2022/12/23 13:05:10;;;;;;;5.85;3.10;;;11.10;99.90;;;;;;4988308;28;20065;-65
2022/12/23 13:07:50;;;;;;;3.83;2.10;;;11.10;99.90;;;;;;5017330;28;20116;-65
2022/12/23 13:10:34;;;;;;;8.07;2.63;;;11.10;99.90;;;;;;5017792;28;20049;-65
2022/12/23 13:13:20;;;;;;;4.15;2.00;;;11.20;99.90;;;;;;4992471;28;20030;-64
2022/12/23 13:15:58;;;;;;;4.53;2.22;;;11.20;99.90;;;;;;4998471;28;20369;-65
2022/12/23 13:18:44;;;;;;;3.95;2.05;;;11.20;99.90;;;;;;5042190;28;20033;-64
2022/12/23 13:21:11;;;;;;;3.70;1.85;;;11.20;99.90;;;;;;5032658;28;20044;-67
2022/12/23 13:24:14;;;;;;;3.88;1.92;;;11.30;99.90;;;;;;5018666;28;20085;-65
2022/12/23 13:26:51;;;;;;;3.55;1.40;;;11.30;99.90;;;;;;5009999;28;20041;-68
2022/12/23 13:29:49;;;;;;;3.63;1.75;;;11.30;99.90;;;;;;5012455;28;20037;-65
2022/12/23 13:32:28;;;;;;;5.18;1.80;;;11.30;99.90;;;;;;5011393;28;20054;-64
2022/12/23 13:35:32;;;;;;;4.80;1.85;;;11.30;99.90;;;;;;5004093;28;20084;-65
2022/12/23 13:38:03;;;;;;;3.97;1.77;;;11.30;99.90;;;;;;5024333;28;20029;-66
2022/12/23 13:40:54;;;;;;;;;;;11.30;99.90;;;;;;4997856;28;20073;-65
2022/12/23 13:43:27;;;;;;;2.88;1.80;;;11.30;99.90;;;;;;5003721;28;20640;-65